createdAt,value
2022-11-05T00:02:52.052Z,47
2022-11-05T00:12:51.146Z,47
2022-11-05T00:22:58.983Z,48
2022-11-05T00:33:06.973Z,49
2022-11-05T00:43:16.690Z,49
2022-11-05T00:53:27.007Z,49
2022-11-05T01:03:36.365Z,49
2022-11-05T01:13:35.732Z,49
2022-11-05T01:23:37.597Z,49
2022-11-05T01:33:46.531Z,50
2022-11-05T01:43:54.347Z,50
2022-11-05T01:54:02.447Z,50
2022-11-05T02:04:10.325Z,50
2022-11-05T02:14:19.362Z,51
2022-11-05T02:24:27.261Z,51
2022-11-05T02:34:37.340Z,50
2022-11-05T02:54:39.157Z,51
2022-11-05T03:14:43.026Z,51
2022-11-05T03:24:51.195Z,51
2022-11-05T03:35:00.177Z,50
2022-11-05T03:45:08.222Z,49
2022-11-05T03:55:17.473Z,48
2022-11-05T04:05:25.916Z,48
2022-11-05T04:25:29.391Z,48
2022-11-05T04:35:38.277Z,48
2022-11-05T04:45:46.620Z,49
2022-11-05T04:55:55.680Z,49
2022-11-05T05:06:04.286Z,50
2022-11-05T05:16:11.970Z,50
2022-11-05T05:26:19.922Z,50
2022-11-05T05:36:27.759Z,51
2022-11-05T05:46:36.561Z,52
2022-11-05T05:56:44.432Z,52
2022-11-05T06:06:52.250Z,52
2022-11-05T06:17:00.025Z,52
2022-11-05T06:27:08.453Z,52
2022-11-05T06:37:16.325Z,53
2022-11-05T06:47:24.227Z,54
2022-11-05T06:57:32.130Z,54
2022-11-05T07:07:40.021Z,54
2022-11-05T07:17:47.891Z,55
2022-11-05T07:27:55.845Z,53
2022-11-05T07:38:03.739Z,50
2022-11-05T07:48:12.854Z,49
2022-11-05T07:58:20.932Z,49
2022-11-05T08:08:28.925Z,49
2022-11-05T08:18:36.853Z,48
2022-11-05T08:28:46.420Z,46
2022-11-05T08:38:55.932Z,44
2022-11-05T08:49:07.745Z,45
2022-11-05T08:59:07.170Z,46
2022-11-05T09:09:15.333Z,42
2022-11-05T09:19:24.441Z,41
2022-11-05T09:29:31.790Z,41
2022-11-05T09:39:39.568Z,39
2022-11-05T09:49:47.308Z,38
2022-11-05T09:59:55.085Z,37
2022-11-05T10:10:02.956Z,36
2022-11-05T10:20:10.735Z,36
2022-11-05T10:30:11.688Z,34
2022-11-05T10:40:19.491Z,32
2022-11-05T10:50:27.171Z,30
2022-11-05T11:00:34.987Z,29
2022-11-05T11:10:42.999Z,30
2022-11-05T11:20:50.855Z,28
2022-11-05T11:31:00.037Z,27
2022-11-05T11:41:07.831Z,27
2022-11-05T11:51:16.057Z,25
2022-11-05T12:01:23.935Z,25
2022-11-05T12:11:31.651Z,24
2022-11-05T12:21:52.382Z,24
2022-11-05T12:31:47.152Z,24
2022-11-05T12:41:55.276Z,24
2022-11-05T12:52:04.576Z,23
2022-11-05T13:02:03.998Z,29
2022-11-05T13:12:12.144Z,33
2022-11-05T13:22:20.222Z,35
2022-11-05T13:32:28.292Z,36
2022-11-05T13:42:36.913Z,34
2022-11-05T13:52:41.208Z,34
2022-11-05T14:02:57.779Z,35
2022-11-05T14:13:02.009Z,36
2022-11-05T14:23:10.118Z,35
2022-11-05T14:33:08.798Z,35
2022-11-05T14:43:23.063Z,38
2022-11-05T14:53:13.788Z,38
2022-11-05T15:03:19.403Z,40
2022-11-05T15:13:18.032Z,42
2022-11-05T15:23:27.240Z,41
2022-11-05T15:33:37.961Z,42
2022-11-05T15:43:38.128Z,42
2022-11-05T15:54:02.132Z,43
2022-11-05T16:03:54.313Z,43
2022-11-05T16:14:01.902Z,43
2022-11-05T16:24:11.276Z,44
2022-11-05T16:34:19.308Z,46
2022-11-05T16:44:27.724Z,47
2022-11-05T16:54:36.494Z,47
2022-11-05T17:04:45.869Z,47
2022-11-05T17:14:55.454Z,48
2022-11-05T17:25:04.473Z,48
2022-11-05T17:35:12.913Z,49
2022-11-05T17:45:21.280Z,49
2022-11-05T17:55:31.091Z,50
2022-11-05T18:05:32.182Z,51
2022-11-05T18:15:39.826Z,51
2022-11-05T18:25:48.390Z,52
2022-11-05T18:35:56.850Z,52
2022-11-05T18:46:06.633Z,53
2022-11-05T18:56:06.054Z,52
2022-11-05T19:06:08.895Z,51
2022-11-05T19:16:18.288Z,51
2022-11-05T19:26:29.559Z,52
2022-11-05T19:36:28.796Z,53
2022-11-05T19:46:36.943Z,55
2022-11-05T19:56:45.881Z,56
2022-11-05T20:06:53.767Z,56
2022-11-05T20:17:01.699Z,57
2022-11-05T20:27:10.109Z,57
2022-11-05T20:37:18.046Z,57
2022-11-05T20:47:25.975Z,58
2022-11-05T20:57:33.904Z,57
2022-11-05T21:07:41.657Z,57
2022-11-05T21:17:49.503Z,57
2022-11-05T21:27:57.375Z,56
2022-11-05T21:38:05.222Z,55
2022-11-05T21:48:13.284Z,55
2022-11-05T22:08:15.658Z,56
2022-11-05T22:18:23.346Z,56
2022-11-05T22:28:31.109Z,54
2022-11-05T22:38:38.952Z,53
2022-11-05T22:48:46.852Z,52
2022-11-05T22:58:54.759Z,49
2022-11-05T23:09:03.651Z,49
2022-11-05T23:19:11.476Z,50
2022-11-05T23:29:19.207Z,51
2022-11-05T23:39:27.079Z,51
2022-11-05T23:49:34.394Z,51
2022-11-05T23:59:42.206Z,51
